createdAt,value
2022-09-28T00:02:18.998Z,10.20
2022-09-28T00:05:47.326Z,9.50
2022-09-28T00:09:14.562Z,9.60
2022-09-28T00:12:42.063Z,8.90
2022-09-28T00:16:12.209Z,8.80
2022-09-28T00:19:39.339Z,9.90
2022-09-28T00:23:06.249Z,11.10
2022-09-28T00:26:34.672Z,8.80
2022-09-28T00:30:02.072Z,9.60
2022-09-28T00:33:29.216Z,10.40
2022-09-28T00:36:56.511Z,9.60
2022-09-28T00:40:23.615Z,10.20
2022-09-28T00:43:51.171Z,9.50
2022-09-28T00:47:39.424Z,8.50
2022-09-28T00:51:11.935Z,8.70
2022-09-28T00:54:42.862Z,8.70
2022-09-28T00:58:14.747Z,9.20
2022-09-28T01:01:44.065Z,10.00
2022-09-28T01:05:12.984Z,8.60
2022-09-28T01:08:41.069Z,9.40
2022-09-28T01:12:09.555Z,9.70
2022-09-28T01:15:44.901Z,9.70
2022-09-28T01:19:33.931Z,9.90
2022-09-28T01:23:27.228Z,9.30
2022-09-28T01:27:15.390Z,9.60
2022-09-28T01:30:49.062Z,9.70
2022-09-28T01:34:21.212Z,9.70
2022-09-28T01:37:54.434Z,9.50
2022-09-28T01:41:24.052Z,10.00
2022-09-28T01:44:55.007Z,9.80
2022-09-28T01:48:31.512Z,9.30
2022-09-28T01:52:03.803Z,9.50
2022-09-28T01:55:35.750Z,10.00
2022-09-28T01:59:08.395Z,9.50
2022-09-28T02:02:41.043Z,9.60
2022-09-28T02:06:15.968Z,9.70
2022-09-28T02:09:47.955Z,9.90
2022-09-28T02:13:20.120Z,9.20
2022-09-28T02:16:49.394Z,9.10
2022-09-28T02:20:17.620Z,9.20
2022-09-28T02:23:54.249Z,9.90
2022-09-28T02:27:30.401Z,9.50
2022-09-28T02:30:57.323Z,9.50
2022-09-28T02:34:24.374Z,9.50
2022-09-28T02:37:52.325Z,9.50
2022-09-28T02:41:34.913Z,10.80
2022-09-28T02:45:19.077Z,9.80
2022-09-28T02:49:10.585Z,10.60
2022-09-28T02:53:00.949Z,10.80
2022-09-28T02:56:46.432Z,11.50
2022-09-28T03:00:17.994Z,11.50
2022-09-28T03:03:52.369Z,10.40
2022-09-28T03:07:26.845Z,10.00
2022-09-28T03:11:01.041Z,10.20
2022-09-28T03:14:28.073Z,9.60
2022-09-28T03:17:57.495Z,8.20
2022-09-28T03:21:25.065Z,9.60
2022-09-28T03:24:52.226Z,8.20
2022-09-28T03:28:19.119Z,7.60
2022-09-28T03:31:49.428Z,7.90
2022-09-28T03:35:37.174Z,8.10
2022-09-28T03:39:12.952Z,8.30
2022-09-28T03:42:45.231Z,8.00
2022-09-28T03:46:12.464Z,7.30
2022-09-28T03:49:43.280Z,8.20
2022-09-28T03:53:11.014Z,8.40
2022-09-28T03:56:38.194Z,8.80
2022-09-28T04:00:05.662Z,8.60
2022-09-28T04:03:40.466Z,11.00
2022-09-28T04:07:07.411Z,10.60
2022-09-28T04:10:34.500Z,8.20
2022-09-28T04:14:02.278Z,6.70
2022-09-28T04:17:30.471Z,6.80
2022-09-28T04:21:12.117Z,6.80
2022-09-28T04:25:00.226Z,5.90
2022-09-28T04:28:46.779Z,6.00
2022-09-28T04:32:14.490Z,5.60
2022-09-28T04:35:41.624Z,5.90
2022-09-28T04:39:09.488Z,6.70
2022-09-28T04:42:37.473Z,6.70
2022-09-28T04:46:06.642Z,6.60
2022-09-28T04:49:42.970Z,6.50
2022-09-28T04:53:25.913Z,7.80
2022-09-28T04:56:53.617Z,8.30
2022-09-28T05:00:20.601Z,7.30
2022-09-28T05:04:03.336Z,6.60
2022-09-28T05:07:46.220Z,6.30
2022-09-28T05:11:16.204Z,6.50
2022-09-28T05:14:43.254Z,5.80
2022-09-28T05:18:19.938Z,6.10
2022-09-28T05:22:00.776Z,5.40
2022-09-28T05:25:27.664Z,5.30
2022-09-28T05:29:16.653Z,6.00
2022-09-28T05:33:06.722Z,7.50
2022-09-28T05:36:53.854Z,9.80
2022-09-28T05:40:20.890Z,7.70
2022-09-28T05:43:49.097Z,6.10
2022-09-28T05:47:15.843Z,6.10
2022-09-28T05:50:43.793Z,6.40
2022-09-28T05:54:10.195Z,7.60
2022-09-28T05:57:41.391Z,8.80
2022-09-28T06:01:08.178Z,8.20
2022-09-28T06:04:35.755Z,8.30
2022-09-28T06:08:04.547Z,8.00
2022-09-28T06:11:34.233Z,8.00
2022-09-28T06:15:11.855Z,7.50
2022-09-28T06:18:38.764Z,7.50
2022-09-28T06:23:01.960Z,7.90
2022-09-28T06:29:50.704Z,9.20
2022-09-28T06:41:40.145Z,9.20
2022-09-28T06:45:16.282Z,9.80
2022-09-28T06:48:50.932Z,9.30
2022-09-28T06:52:23.400Z,10.20
2022-09-28T06:56:14.857Z,9.60
2022-09-28T06:59:42.130Z,10.20
2022-09-28T07:03:13.789Z,9.30
2022-09-28T07:07:16.184Z,9.30
2022-09-28T07:11:06.428Z,9.00
2022-09-28T07:15:16.105Z,9.60
2022-09-28T07:18:44.511Z,9.50
2022-09-28T07:22:18.433Z,10.20
2022-09-28T07:25:49.482Z,8.40
2022-09-28T07:29:33.967Z,9.10
2022-09-28T07:33:23.175Z,8.40
2022-09-28T07:36:59.719Z,9.60
2022-09-28T07:40:48.185Z,9.90
2022-09-28T07:44:17.749Z,9.00
2022-09-28T07:47:53.056Z,8.50
2022-09-28T07:51:57.978Z,8.30
2022-09-28T07:55:48.025Z,7.30
2022-09-28T07:59:32.052Z,7.80
2022-09-28T08:03:19.205Z,7.60
2022-09-28T08:06:46.358Z,6.90
2022-09-28T08:15:40.919Z,7.20
2022-09-28T08:19:23.016Z,6.50
2022-09-28T08:22:50.153Z,6.90
2022-09-28T08:26:17.473Z,7.80
2022-09-28T08:29:45.422Z,7.00
2022-09-28T08:33:31.039Z,7.20
2022-09-28T08:37:16.765Z,6.90
2022-09-28T08:41:08.685Z,6.30
2022-09-28T08:44:56.008Z,5.70
2022-09-28T08:49:23.815Z,5.40
2022-09-28T08:53:02.387Z,5.20
2022-09-28T08:56:57.865Z,6.10
2022-09-28T09:00:37.245Z,6.20
2022-09-28T09:04:09.342Z,7.60
2022-09-28T09:08:14.079Z,8.80
2022-09-28T09:11:58.672Z,8.20
2022-09-28T09:19:13.068Z,9.00
2022-09-28T09:23:00.777Z,9.20
2022-09-28T09:26:39.582Z,9.00
2022-09-28T09:30:19.566Z,8.80
2022-09-28T09:34:13.968Z,7.90
2022-09-28T09:38:17.863Z,7.00
2022-09-28T09:42:22.423Z,7.00
2022-09-28T09:46:18.601Z,7.20
2022-09-28T09:50:05.467Z,8.30
2022-09-28T09:53:43.828Z,8.70
2022-09-28T09:57:18.480Z,9.70
2022-09-28T10:01:08.665Z,10.80
2022-09-28T10:04:59.538Z,10.90
2022-09-28T10:08:36.053Z,10.90
2022-09-28T10:12:04.250Z,6.80
2022-09-28T10:15:33.192Z,6.80
2022-09-28T10:19:13.772Z,7.00
2022-09-28T10:23:08.405Z,6.50
2022-09-28T10:26:40.656Z,6.50
2022-09-28T10:30:24.234Z,6.50
2022-09-28T10:33:54.723Z,6.60
2022-09-28T10:37:24.528Z,5.90
2022-09-28T10:41:23.935Z,6.40
2022-09-28T10:45:01.254Z,6.70
2022-09-28T10:48:47.798Z,6.70
2022-09-28T10:52:33.761Z,7.40
2022-09-28T10:56:24.572Z,6.60
2022-09-28T10:59:56.269Z,6.30
2022-09-28T11:03:29.461Z,7.00
2022-09-28T11:07:02.210Z,6.60
2022-09-28T11:10:33.256Z,6.20
2022-09-28T11:14:37.127Z,6.90
2022-09-28T11:18:28.445Z,6.70
2022-09-28T11:21:56.158Z,7.70
2022-09-28T11:25:33.255Z,5.50
2022-09-28T11:29:00.871Z,5.40
2022-09-28T11:32:49.239Z,5.50
2022-09-28T11:36:32.963Z,5.00
2022-09-28T11:40:11.532Z,4.80
2022-09-28T11:43:57.529Z,4.60
2022-09-28T11:47:39.531Z,4.90
2022-09-28T11:51:13.060Z,4.90
2022-09-28T11:54:47.746Z,4.70
2022-09-28T11:58:22.715Z,4.10
2022-09-28T12:01:54.831Z,3.90
2022-09-28T12:05:51.314Z,4.00
2022-09-28T12:09:26.375Z,2.90
2022-09-28T12:13:04.962Z,3.50
2022-09-28T12:20:28.669Z,3.30
2022-09-28T12:23:58.747Z,3.30
2022-09-28T12:27:32.233Z,3.10
2022-09-28T12:31:09.258Z,3.50
2022-09-28T12:34:36.958Z,3.60
2022-09-28T12:38:25.010Z,3.60
2022-09-28T12:42:09.880Z,3.10
2022-09-28T12:46:12.067Z,2.90
2022-09-28T12:54:21.037Z,3.50
2022-09-28T12:58:09.173Z,3.90
2022-09-28T13:02:03.815Z,4.30
2022-09-28T13:06:19.372Z,3.30
2022-09-28T13:10:01.916Z,4.00
2022-09-28T13:13:46.900Z,3.90
2022-09-28T13:17:28.359Z,3.50
2022-09-28T13:21:06.398Z,3.60
2022-09-28T13:24:47.239Z,3.30
2022-09-28T13:28:16.962Z,3.90
2022-09-28T13:31:50.835Z,3.90
2022-09-28T13:35:23.497Z,3.70
2022-09-28T13:38:52.597Z,3.80
2022-09-28T13:42:44.578Z,4.30
2022-09-28T13:46:22.535Z,3.90
2022-09-28T13:50:02.161Z,3.80
2022-09-28T13:53:42.340Z,5.30
2022-09-28T13:57:19.983Z,5.50
2022-09-28T14:00:52.103Z,6.00
2022-09-28T14:04:22.685Z,5.40
2022-09-28T14:08:29.395Z,6.10
2022-09-28T14:12:01.534Z,8.00
2022-09-28T14:15:47.304Z,8.20
2022-09-28T14:19:20.943Z,7.20
2022-09-28T14:23:11.713Z,7.60
2022-09-28T14:27:15.015Z,7.40
2022-09-28T14:30:56.210Z,9.00
2022-09-28T14:34:42.502Z,7.40
2022-09-28T14:38:36.294Z,8.50
2022-09-28T14:42:13.071Z,9.00
2022-09-28T14:45:44.534Z,7.60
2022-09-28T14:49:41.595Z,4.60
2022-09-28T14:53:18.269Z,4.70
2022-09-28T14:56:59.421Z,4.40
2022-09-28T15:00:32.247Z,4.50
2022-09-28T15:04:06.092Z,5.00
2022-09-28T15:07:47.306Z,5.50
2022-09-28T15:11:21.683Z,4.70
2022-09-28T15:14:53.319Z,5.10
2022-09-28T15:18:49.715Z,5.30
2022-09-28T15:22:22.604Z,5.40
2022-09-28T15:25:56.325Z,5.70
2022-09-28T15:29:31.439Z,7.20
2022-09-28T15:33:24.584Z,7.70
2022-09-28T15:36:57.891Z,7.30
2022-09-28T15:40:33.851Z,6.50
2022-09-28T15:44:37.266Z,6.80
2022-09-28T15:48:31.243Z,6.70
2022-09-28T15:52:03.265Z,6.40
2022-09-28T15:55:34.047Z,6.20
2022-09-28T15:59:26.939Z,5.80
2022-09-28T16:03:19.039Z,6.70
2022-09-28T16:06:46.746Z,7.80
2022-09-28T16:10:37.591Z,6.70
2022-09-28T16:14:21.410Z,7.30
2022-09-28T16:17:55.706Z,7.10
2022-09-28T16:21:43.688Z,7.90
2022-09-28T16:25:27.661Z,15.60
2022-09-28T16:28:56.656Z,4.00
2022-09-28T16:32:49.787Z,4.90
2022-09-28T16:36:18.681Z,4.60
2022-09-28T16:39:45.877Z,3.50
2022-09-28T16:43:27.969Z,2.70
2022-09-28T16:47:01.280Z,1.90
2022-09-28T16:50:40.759Z,3.30
2022-09-28T16:54:36.998Z,2.20
2022-09-28T16:58:09.324Z,2.00
2022-09-28T17:01:44.471Z,2.70
2022-09-28T17:05:24.153Z,3.80
2022-09-28T17:08:59.266Z,3.30
2022-09-28T17:12:30.495Z,3.60
2022-09-28T17:16:01.862Z,3.30
2022-09-28T17:19:32.243Z,3.50
2022-09-28T17:23:01.604Z,2.90
2022-09-28T17:26:35.019Z,2.80
2022-09-28T17:30:02.010Z,2.90
2022-09-28T17:33:30.129Z,3.20
2022-09-28T17:36:58.208Z,3.20
2022-09-28T17:40:28.735Z,3.60
2022-09-28T17:43:56.539Z,3.80
2022-09-28T17:47:23.187Z,4.10
2022-09-28T17:50:51.465Z,4.60
2022-09-28T17:54:20.966Z,4.70
2022-09-28T17:57:49.163Z,5.40
2022-09-28T18:01:16.355Z,5.50
2022-09-28T18:04:52.046Z,9.50
2022-09-28T18:08:25.075Z,10.20
2022-09-28T18:12:00.760Z,10.60
2022-09-28T18:15:32.775Z,13.10
2022-09-28T18:19:02.262Z,35.90
2022-09-28T18:22:47.215Z,17.20
2022-09-28T18:26:20.834Z,13.70
2022-09-28T18:29:49.854Z,10.30
2022-09-28T18:33:21.224Z,9.50
2022-09-28T18:36:50.386Z,10.60
2022-09-28T18:40:18.181Z,8.70
2022-09-28T18:43:50.528Z,8.40
2022-09-28T18:47:23.881Z,8.10
2022-09-28T18:50:51.813Z,8.90
2022-09-28T18:54:21.910Z,11.80
2022-09-28T18:57:51.760Z,11.20
2022-09-28T19:01:36.551Z,10.80
2022-09-28T19:05:07.273Z,12.00
2022-09-28T19:08:34.164Z,11.00
2022-09-28T19:12:06.547Z,10.10
2022-09-28T19:15:41.915Z,9.40
2022-09-28T19:19:12.163Z,9.60
2022-09-28T19:22:40.100Z,10.00
2022-09-28T19:26:11.520Z,9.80
2022-09-28T19:29:39.174Z,11.00
2022-09-28T19:33:07.285Z,12.70
2022-09-28T19:36:36.770Z,14.70
2022-09-28T19:40:06.117Z,17.00
2022-09-28T19:43:48.720Z,21.80
2022-09-28T19:47:21.943Z,19.20
2022-09-28T19:51:02.264Z,17.30
2022-09-28T19:54:36.412Z,13.10
2022-09-28T19:58:07.158Z,11.80
2022-09-28T20:01:35.301Z,11.50
2022-09-28T20:05:03.301Z,12.20
2022-09-28T20:08:34.125Z,13.10
2022-09-28T20:12:07.240Z,11.80
2022-09-28T20:15:37.804Z,11.90
2022-09-28T20:19:07.738Z,15.30
2022-09-28T20:22:35.410Z,15.20
2022-09-28T20:26:10.430Z,15.90
2022-09-28T20:29:39.612Z,13.80
2022-09-28T20:33:15.703Z,15.10
2022-09-28T20:36:49.360Z,15.90
2022-09-28T20:40:20.599Z,15.10
2022-09-28T20:43:50.920Z,15.20
2022-09-28T20:47:22.224Z,13.80
2022-09-28T20:51:06.250Z,14.10
2022-09-28T20:54:38.361Z,14.70
2022-09-28T20:58:09.132Z,13.90
2022-09-28T21:01:36.734Z,13.10
2022-09-28T21:05:08.451Z,12.60
2022-09-28T21:08:37.753Z,12.60
2022-09-28T21:12:07.497Z,10.50
2022-09-28T21:15:42.376Z,9.70
2022-09-28T21:19:11.780Z,9.80
2022-09-28T21:22:40.400Z,10.30
2022-09-28T21:26:25.890Z,10.60
2022-09-28T21:29:56.772Z,10.40
2022-09-28T21:33:24.652Z,9.50
2022-09-28T21:36:55.297Z,10.50
2022-09-28T21:40:24.434Z,10.80
2022-09-28T21:43:52.455Z,10.80
2022-09-28T21:47:19.518Z,9.60
2022-09-28T21:50:59.046Z,9.80
2022-09-28T21:54:30.712Z,9.70
2022-09-28T21:58:01.480Z,10.50
2022-09-28T22:01:33.056Z,11.10
2022-09-28T22:05:01.292Z,13.80
2022-09-28T22:08:28.534Z,14.40
2022-09-28T22:11:57.722Z,13.10
2022-09-28T22:15:25.643Z,13.50
2022-09-28T22:18:53.705Z,14.00
2022-09-28T22:22:26.129Z,13.70
2022-09-28T22:26:01.411Z,12.10
2022-09-28T22:29:28.669Z,11.90
2022-09-28T22:32:55.493Z,11.90
2022-09-28T22:36:25.845Z,11.50
2022-09-28T22:39:53.964Z,11.60
2022-09-28T22:43:21.322Z,11.90
2022-09-28T22:47:15.422Z,12.90
2022-09-28T22:50:48.858Z,12.20
2022-09-28T22:54:16.775Z,12.00
2022-09-28T22:57:47.620Z,11.40
2022-09-28T23:01:17.607Z,12.10
2022-09-28T23:04:48.579Z,11.20
2022-09-28T23:08:15.253Z,11.80
2022-09-28T23:11:42.657Z,11.40
2022-09-28T23:15:11.879Z,11.10
2022-09-28T23:18:41.329Z,10.40
2022-09-28T23:22:07.886Z,11.10
2022-09-28T23:25:34.318Z,10.50
2022-09-28T23:29:00.959Z,11.10
2022-09-28T23:32:31.885Z,11.20
2022-09-28T23:36:02.153Z,12.00
2022-09-28T23:39:29.495Z,12.20
2022-09-28T23:42:56.245Z,12.30
2022-09-28T23:46:23.135Z,14.20
2022-09-28T23:49:50.056Z,16.00
2022-09-28T23:53:17.651Z,16.00
2022-09-28T23:56:44.370Z,18.80
